sensor_id;sensor_type;location;lat;lon;timestamp;P1;durP1;ratioP1;P2;durP2;ratioP2
10399;SDS011;10031;51.180;17.168;2023-02-04T00:00:22;1.13;;;0.90;;
10399;SDS011;10031;51.180;17.168;2023-02-04T00:02:48;1.73;;;0.87;;
10399;SDS011;10031;51.180;17.168;2023-02-04T00:05:17;1.33;;;0.80;;
10399;SDS011;10031;51.180;17.168;2023-02-04T00:07:47;3.17;;;1.00;;
10399;SDS011;10031;51.180;17.168;2023-02-04T00:10:13;1.23;;;1.13;;
10399;SDS011;10031;51.180;17.168;2023-02-04T00:12:39;1.90;;;1.30;;
10399;SDS011;10031;51.180;17.168;2023-02-04T00:15:05;0.93;;;0.90;;
10399;SDS011;10031;51.180;17.168;2023-02-04T00:17:32;1.17;;;1.07;;
10399;SDS011;10031;51.180;17.168;2023-02-04T00:19:58;1.13;;;1.03;;
10399;SDS011;10031;51.180;17.168;2023-02-04T00:22:24;1.07;;;0.83;;
10399;SDS011;10031;51.180;17.168;2023-02-04T00:24:52;0.90;;;0.90;;
10399;SDS011;10031;51.180;17.168;2023-02-04T00:27:21;0.93;;;0.93;;
10399;SDS011;10031;51.180;17.168;2023-02-04T00:29:47;1.40;;;1.20;;
10399;SDS011;10031;51.180;17.168;2023-02-04T00:32:13;2.57;;;1.17;;
10399;SDS011;10031;51.180;17.168;2023-02-04T00:34:39;1.83;;;1.07;;
10399;SDS011;10031;51.180;17.168;2023-02-04T00:37:05;0.90;;;0.90;;
10399;SDS011;10031;51.180;17.168;2023-02-04T00:39:31;2.33;;;1.57;;
10399;SDS011;10031;51.180;17.168;2023-02-04T00:41:57;1.63;;;1.40;;
10399;SDS011;10031;51.180;17.168;2023-02-04T00:44:24;1.40;;;1.30;;
10399;SDS011;10031;51.180;17.168;2023-02-04T00:46:50;2.77;;;1.77;;
10399;SDS011;10031;51.180;17.168;2023-02-04T00:49:16;1.77;;;1.50;;
10399;SDS011;10031;51.180;17.168;2023-02-04T00:51:42;3.47;;;1.70;;
10399;SDS011;10031;51.180;17.168;2023-02-04T00:54:10;1.70;;;1.60;;
10399;SDS011;10031;51.180;17.168;2023-02-04T00:56:40;1.47;;;1.30;;
10399;SDS011;10031;51.180;17.168;2023-02-04T00:59:06;1.93;;;1.60;;
10399;SDS011;10031;51.180;17.168;2023-02-04T01:01:32;3.53;;;1.67;;
10399;SDS011;10031;51.180;17.168;2023-02-04T01:03:58;1.40;;;1.30;;
10399;SDS011;10031;51.180;17.168;2023-02-04T01:06:24;1.60;;;1.50;;
10399;SDS011;10031;51.180;17.168;2023-02-04T01:08:54;1.23;;;1.13;;
10399;SDS011;10031;51.180;17.168;2023-02-04T01:11:19;1.53;;;1.37;;
10399;SDS011;10031;51.180;17.168;2023-02-04T01:13:50;2.53;;;1.33;;
10399;SDS011;10031;51.180;17.168;2023-02-04T01:16:17;2.97;;;2.10;;
10399;SDS011;10031;51.180;17.168;2023-02-04T01:18:43;2.47;;;2.07;;
10399;SDS011;10031;51.180;17.168;2023-02-04T01:21:13;2.30;;;1.70;;
10399;SDS011;10031;51.180;17.168;2023-02-04T01:23:42;1.67;;;1.57;;
10399;SDS011;10031;51.180;17.168;2023-02-04T01:26:07;1.63;;;1.53;;
10399;SDS011;10031;51.180;17.168;2023-02-04T01:28:33;2.93;;;2.30;;
10399;SDS011;10031;51.180;17.168;2023-02-04T01:31:00;3.93;;;2.67;;
10399;SDS011;10031;51.180;17.168;2023-02-04T01:33:29;3.57;;;2.63;;
10399;SDS011;10031;51.180;17.168;2023-02-04T01:35:55;3.23;;;2.70;;
10399;SDS011;10031;51.180;17.168;2023-02-04T01:38:21;10.93;;;6.80;;
10399;SDS011;10031;51.180;17.168;2023-02-04T01:40:47;13.13;;;9.03;;
10399;SDS011;10031;51.180;17.168;2023-02-04T01:43:13;17.17;;;11.43;;
10399;SDS011;10031;51.180;17.168;2023-02-04T01:45:39;19.97;;;11.87;;
10399;SDS011;10031;51.180;17.168;2023-02-04T01:48:05;16.37;;;10.27;;
10399;SDS011;10031;51.180;17.168;2023-02-04T01:50:32;11.73;;;7.93;;
10399;SDS011;10031;51.180;17.168;2023-02-04T01:52:58;14.30;;;8.37;;
10399;SDS011;10031;51.180;17.168;2023-02-04T01:55:26;14.27;;;8.30;;
10399;SDS011;10031;51.180;17.168;2023-02-04T01:57:52;14.73;;;10.60;;
10399;SDS011;10031;51.180;17.168;2023-02-04T02:00:23;12.33;;;8.83;;
10399;SDS011;10031;51.180;17.168;2023-02-04T02:02:53;14.43;;;8.80;;
10399;SDS011;10031;51.180;17.168;2023-02-04T02:05:21;11.57;;;7.43;;
10399;SDS011;10031;51.180;17.168;2023-02-04T02:07:48;13.00;;;7.37;;
10399;SDS011;10031;51.180;17.168;2023-02-04T02:10:15;10.27;;;7.50;;
10399;SDS011;10031;51.180;17.168;2023-02-04T02:12:42;9.83;;;7.47;;
10399;SDS011;10031;51.180;17.168;2023-02-04T02:15:09;12.33;;;7.93;;
10399;SDS011;10031;51.180;17.168;2023-02-04T02:17:36;9.33;;;6.83;;
10399;SDS011;10031;51.180;17.168;2023-02-04T02:20:04;8.63;;;6.93;;
10399;SDS011;10031;51.180;17.168;2023-02-04T02:22:47;17.00;;;6.67;;
10399;SDS011;10031;51.180;17.168;2023-02-04T02:25:19;8.10;;;5.70;;
10399;SDS011;10031;51.180;17.168;2023-02-04T02:27:45;13.53;;;7.67;;
10399;SDS011;10031;51.180;17.168;2023-02-04T02:30:12;10.50;;;6.63;;
10399;SDS011;10031;51.180;17.168;2023-02-04T02:32:42;10.53;;;6.67;;
10399;SDS011;10031;51.180;17.168;2023-02-04T02:35:12;5.27;;;4.00;;
10399;SDS011;10031;51.180;17.168;2023-02-04T02:37:38;9.70;;;5.63;;
10399;SDS011;10031;51.180;17.168;2023-02-04T02:40:04;7.47;;;5.40;;
10399;SDS011;10031;51.180;17.168;2023-02-04T02:42:31;9.60;;;6.27;;
10399;SDS011;10031;51.180;17.168;2023-02-04T02:44:57;7.53;;;4.37;;
10399;SDS011;10031;51.180;17.168;2023-02-04T02:47:24;5.57;;;4.07;;
10399;SDS011;10031;51.180;17.168;2023-02-04T02:49:54;5.10;;;4.00;;
10399;SDS011;10031;51.180;17.168;2023-02-04T02:52:20;3.87;;;3.27;;
10399;SDS011;10031;51.180;17.168;2023-02-04T02:54:47;4.07;;;3.00;;
10399;SDS011;10031;51.180;17.168;2023-02-04T02:57:14;5.70;;;3.47;;
10399;SDS011;10031;51.180;17.168;2023-02-04T02:59:41;6.80;;;5.13;;
10399;SDS011;10031;51.180;17.168;2023-02-04T03:02:08;5.47;;;3.63;;
10399;SDS011;10031;51.180;17.168;2023-02-04T03:04:40;6.80;;;5.03;;
10399;SDS011;10031;51.180;17.168;2023-02-04T03:07:07;5.67;;;3.27;;
10399;SDS011;10031;51.180;17.168;2023-02-04T03:09:34;3.93;;;2.93;;
10399;SDS011;10031;51.180;17.168;2023-02-04T03:12:01;2.20;;;1.67;;
10399;SDS011;10031;51.180;17.168;2023-02-04T03:14:27;4.03;;;2.77;;
10399;SDS011;10031;51.180;17.168;2023-02-04T03:16:53;3.67;;;2.70;;
10399;SDS011;10031;51.180;17.168;2023-02-04T03:19:24;4.00;;;2.27;;
10399;SDS011;10031;51.180;17.168;2023-02-04T03:21:50;5.00;;;2.30;;
10399;SDS011;10031;51.180;17.168;2023-02-04T03:24:16;2.10;;;1.90;;
10399;SDS011;10031;51.180;17.168;2023-02-04T03:26:43;2.53;;;2.33;;
10399;SDS011;10031;51.180;17.168;2023-02-04T03:29:09;2.00;;;1.70;;
10399;SDS011;10031;51.180;17.168;2023-02-04T03:31:35;2.50;;;1.70;;
10399;SDS011;10031;51.180;17.168;2023-02-04T03:34:02;4.37;;;2.23;;
10399;SDS011;10031;51.180;17.168;2023-02-04T03:36:28;1.67;;;1.57;;
10399;SDS011;10031;51.180;17.168;2023-02-04T03:38:54;3.57;;;2.10;;
10399;SDS011;10031;51.180;17.168;2023-02-04T03:41:20;5.97;;;2.00;;
10399;SDS011;10031;51.180;17.168;2023-02-04T03:43:47;1.70;;;1.60;;
10399;SDS011;10031;51.180;17.168;2023-02-04T03:46:13;2.47;;;2.20;;
10399;SDS011;10031;51.180;17.168;2023-02-04T03:48:41;2.83;;;1.87;;
10399;SDS011;10031;51.180;17.168;2023-02-04T03:51:07;2.03;;;1.60;;
10399;SDS011;10031;51.180;17.168;2023-02-04T03:53:33;3.27;;;2.40;;
10399;SDS011;10031;51.180;17.168;2023-02-04T03:55:59;5.80;;;3.00;;
10399;SDS011;10031;51.180;17.168;2023-02-04T03:58:25;5.43;;;3.70;;
10399;SDS011;10031;51.180;17.168;2023-02-04T04:00:51;5.60;;;3.17;;
10399;SDS011;10031;51.180;17.168;2023-02-04T04:03:18;4.70;;;3.27;;
10399;SDS011;10031;51.180;17.168;2023-02-04T04:05:47;6.87;;;3.10;;
10399;SDS011;10031;51.180;17.168;2023-02-04T04:08:13;5.20;;;3.33;;
10399;SDS011;10031;51.180;17.168;2023-02-04T04:10:39;3.00;;;2.30;;
10399;SDS011;10031;51.180;17.168;2023-02-04T04:13:05;5.17;;;3.77;;
10399;SDS011;10031;51.180;17.168;2023-02-04T04:15:32;4.67;;;2.77;;
10399;SDS011;10031;51.180;17.168;2023-02-04T04:17:58;5.40;;;4.10;;
10399;SDS011;10031;51.180;17.168;2023-02-04T04:20:24;2.43;;;2.20;;
10399;SDS011;10031;51.180;17.168;2023-02-04T04:22:52;5.10;;;3.23;;
10399;SDS011;10031;51.180;17.168;2023-02-04T04:25:18;3.87;;;3.43;;
10399;SDS011;10031;51.180;17.168;2023-02-04T04:27:44;5.10;;;3.13;;
10399;SDS011;10031;51.180;17.168;2023-02-04T04:30:11;3.53;;;2.60;;
10399;SDS011;10031;51.180;17.168;2023-02-04T04:32:37;5.17;;;3.90;;
10399;SDS011;10031;51.180;17.168;2023-02-04T04:35:03;5.83;;;3.90;;
10399;SDS011;10031;51.180;17.168;2023-02-04T04:37:29;6.03;;;3.97;;
10399;SDS011;10031;51.180;17.168;2023-02-04T04:39:55;6.40;;;4.00;;
10399;SDS011;10031;51.180;17.168;2023-02-04T04:42:21;4.00;;;3.23;;
10399;SDS011;10031;51.180;17.168;2023-02-04T04:44:47;5.67;;;3.67;;
10399;SDS011;10031;51.180;17.168;2023-02-04T04:47:14;6.40;;;3.67;;
10399;SDS011;10031;51.180;17.168;2023-02-04T04:49:40;2.63;;;2.43;;
10399;SDS011;10031;51.180;17.168;2023-02-04T04:52:10;4.57;;;3.57;;
10399;SDS011;10031;51.180;17.168;2023-02-04T04:54:39;7.67;;;3.93;;
10399;SDS011;10031;51.180;17.168;2023-02-04T04:57:05;5.37;;;4.17;;
10399;SDS011;10031;51.180;17.168;2023-02-04T04:59:32;5.50;;;3.33;;
10399;SDS011;10031;51.180;17.168;2023-02-04T05:01:58;7.83;;;4.57;;
10399;SDS011;10031;51.180;17.168;2023-02-04T05:04:24;5.53;;;3.60;;
10399;SDS011;10031;51.180;17.168;2023-02-04T05:06:54;4.40;;;3.57;;
10399;SDS011;10031;51.180;17.168;2023-02-04T05:09:20;4.67;;;3.37;;
10399;SDS011;10031;51.180;17.168;2023-02-04T05:11:46;6.17;;;4.37;;
10399;SDS011;10031;51.180;17.168;2023-02-04T05:14:16;3.20;;;2.90;;
10399;SDS011;10031;51.180;17.168;2023-02-04T05:16:45;5.83;;;4.40;;
10399;SDS011;10031;51.180;17.168;2023-02-04T05:19:12;3.83;;;3.27;;
10399;SDS011;10031;51.180;17.168;2023-02-04T05:21:38;4.07;;;2.73;;
10399;SDS011;10031;51.180;17.168;2023-02-04T05:24:04;6.90;;;5.03;;
10399;SDS011;10031;51.180;17.168;2023-02-04T05:26:36;9.93;;;5.57;;
10399;SDS011;10031;51.180;17.168;2023-02-04T05:29:02;4.47;;;3.43;;
10399;SDS011;10031;51.180;17.168;2023-02-04T05:31:28;5.47;;;3.87;;
10399;SDS011;10031;51.180;17.168;2023-02-04T05:33:55;9.20;;;5.13;;
10399;SDS011;10031;51.180;17.168;2023-02-04T05:36:21;7.63;;;4.33;;
10399;SDS011;10031;51.180;17.168;2023-02-04T05:38:47;3.63;;;2.60;;
10399;SDS011;10031;51.180;17.168;2023-02-04T05:41:14;9.57;;;4.83;;
10399;SDS011;10031;51.180;17.168;2023-02-04T05:43:40;5.07;;;3.83;;
10399;SDS011;10031;51.180;17.168;2023-02-04T05:46:07;3.07;;;2.73;;
10399;SDS011;10031;51.180;17.168;2023-02-04T05:48:36;6.90;;;4.67;;
10399;SDS011;10031;51.180;17.168;2023-02-04T05:51:04;5.83;;;4.23;;
10399;SDS011;10031;51.180;17.168;2023-02-04T05:53:30;6.37;;;5.30;;
10399;SDS011;10031;51.180;17.168;2023-02-04T05:55:59;6.53;;;4.23;;
10399;SDS011;10031;51.180;17.168;2023-02-04T05:58:25;5.27;;;3.47;;
10399;SDS011;10031;51.180;17.168;2023-02-04T06:00:57;7.97;;;4.37;;
10399;SDS011;10031;51.180;17.168;2023-02-04T06:03:27;8.67;;;5.37;;
10399;SDS011;10031;51.180;17.168;2023-02-04T06:05:57;9.63;;;5.27;;
10399;SDS011;10031;51.180;17.168;2023-02-04T06:08:24;6.33;;;3.97;;
10399;SDS011;10031;51.180;17.168;2023-02-04T06:10:50;11.17;;;6.67;;
10399;SDS011;10031;51.180;17.168;2023-02-04T06:13:19;7.93;;;5.77;;
10399;SDS011;10031;51.180;17.168;2023-02-04T06:15:45;8.73;;;4.17;;
10399;SDS011;10031;51.180;17.168;2023-02-04T06:18:11;8.33;;;4.80;;
10399;SDS011;10031;51.180;17.168;2023-02-04T06:20:38;11.07;;;6.17;;
10399;SDS011;10031;51.180;17.168;2023-02-04T06:23:04;7.57;;;5.30;;
10399;SDS011;10031;51.180;17.168;2023-02-04T06:25:30;7.43;;;4.63;;
10399;SDS011;10031;51.180;17.168;2023-02-04T06:27:56;10.60;;;6.20;;
10399;SDS011;10031;51.180;17.168;2023-02-04T06:30:22;12.07;;;7.10;;
10399;SDS011;10031;51.180;17.168;2023-02-04T06:32:48;7.17;;;4.60;;
10399;SDS011;10031;51.180;17.168;2023-02-04T06:35:14;8.20;;;4.43;;
10399;SDS011;10031;51.180;17.168;2023-02-04T06:37:40;8.07;;;4.97;;
10399;SDS011;10031;51.180;17.168;2023-02-04T06:40:07;9.00;;;5.87;;
10399;SDS011;10031;51.180;17.168;2023-02-04T06:42:34;9.67;;;5.07;;
10399;SDS011;10031;51.180;17.168;2023-02-04T06:45:00;4.20;;;2.50;;
10399;SDS011;10031;51.180;17.168;2023-02-04T06:47:27;6.30;;;4.20;;
10399;SDS011;10031;51.180;17.168;2023-02-04T06:49:58;8.07;;;4.83;;
10399;SDS011;10031;51.180;17.168;2023-02-04T06:52:24;8.97;;;5.40;;
10399;SDS011;10031;51.180;17.168;2023-02-04T06:54:50;8.70;;;4.77;;
10399;SDS011;10031;51.180;17.168;2023-02-04T06:57:16;6.47;;;3.43;;
10399;SDS011;10031;51.180;17.168;2023-02-04T06:59:42;3.97;;;2.60;;
10399;SDS011;10031;51.180;17.168;2023-02-04T07:02:11;4.70;;;3.10;;
10399;SDS011;10031;51.180;17.168;2023-02-04T07:04:38;11.47;;;5.77;;
10399;SDS011;10031;51.180;17.168;2023-02-04T07:07:07;4.67;;;3.40;;
10399;SDS011;10031;51.180;17.168;2023-02-04T07:09:41;7.80;;;3.87;;
10399;SDS011;10031;51.180;17.168;2023-02-04T07:12:07;3.53;;;2.90;;
10399;SDS011;10031;51.180;17.168;2023-02-04T07:14:34;7.70;;;4.80;;
10399;SDS011;10031;51.180;17.168;2023-02-04T07:17:00;5.67;;;2.73;;
10399;SDS011;10031;51.180;17.168;2023-02-04T07:19:27;6.17;;;4.47;;
10399;SDS011;10031;51.180;17.168;2023-02-04T07:21:56;8.77;;;4.43;;
10399;SDS011;10031;51.180;17.168;2023-02-04T07:24:23;6.33;;;4.10;;
10399;SDS011;10031;51.180;17.168;2023-02-04T07:26:52;7.87;;;4.27;;
10399;SDS011;10031;51.180;17.168;2023-02-04T07:29:19;5.37;;;3.80;;
10399;SDS011;10031;51.180;17.168;2023-02-04T07:31:45;3.67;;;3.17;;
10399;SDS011;10031;51.180;17.168;2023-02-04T07:34:12;4.80;;;3.20;;
10399;SDS011;10031;51.180;17.168;2023-02-04T07:36:38;5.83;;;3.87;;
10399;SDS011;10031;51.180;17.168;2023-02-04T07:39:07;8.83;;;4.53;;
10399;SDS011;10031;51.180;17.168;2023-02-04T07:41:37;8.03;;;3.87;;
10399;SDS011;10031;51.180;17.168;2023-02-04T07:44:03;5.17;;;2.80;;
10399;SDS011;10031;51.180;17.168;2023-02-04T07:46:29;4.37;;;3.30;;
10399;SDS011;10031;51.180;17.168;2023-02-04T07:48:59;7.53;;;4.37;;
10399;SDS011;10031;51.180;17.168;2023-02-04T07:51:29;5.93;;;3.63;;
10399;SDS011;10031;51.180;17.168;2023-02-04T07:53:55;8.03;;;3.87;;
10399;SDS011;10031;51.180;17.168;2023-02-04T07:56:21;7.10;;;4.20;;
10399;SDS011;10031;51.180;17.168;2023-02-04T07:58:48;6.23;;;3.80;;
10399;SDS011;10031;51.180;17.168;2023-02-04T08:01:14;4.43;;;2.87;;
10399;SDS011;10031;51.180;17.168;2023-02-04T08:03:40;8.10;;;4.43;;
10399;SDS011;10031;51.180;17.168;2023-02-04T08:06:07;4.37;;;2.90;;
10399;SDS011;10031;51.180;17.168;2023-02-04T08:08:33;5.30;;;3.57;;
10399;SDS011;10031;51.180;17.168;2023-02-04T08:10:59;6.00;;;3.17;;
10399;SDS011;10031;51.180;17.168;2023-02-04T08:13:25;6.63;;;4.07;;
10399;SDS011;10031;51.180;17.168;2023-02-04T08:15:51;5.77;;;3.80;;
10399;SDS011;10031;51.180;17.168;2023-02-04T08:18:18;6.73;;;4.00;;
10399;SDS011;10031;51.180;17.168;2023-02-04T08:20:44;3.30;;;2.90;;
10399;SDS011;10031;51.180;17.168;2023-02-04T08:23:10;5.43;;;3.57;;
10399;SDS011;10031;51.180;17.168;2023-02-04T08:25:38;6.43;;;3.93;;
10399;SDS011;10031;51.180;17.168;2023-02-04T08:28:05;3.67;;;2.60;;
10399;SDS011;10031;51.180;17.168;2023-02-04T08:30:31;5.30;;;3.13;;
10399;SDS011;10031;51.180;17.168;2023-02-04T08:32:57;5.40;;;3.20;;
10399;SDS011;10031;51.180;17.168;2023-02-04T08:35:23;5.63;;;3.17;;
10399;SDS011;10031;51.180;17.168;2023-02-04T08:37:49;4.77;;;2.57;;
10399;SDS011;10031;51.180;17.168;2023-02-04T08:40:15;7.53;;;3.50;;
10399;SDS011;10031;51.180;17.168;2023-02-04T08:42:41;6.30;;;3.50;;
10399;SDS011;10031;51.180;17.168;2023-02-04T08:45:07;3.83;;;2.47;;
10399;SDS011;10031;51.180;17.168;2023-02-04T08:47:34;4.97;;;2.93;;
10399;SDS011;10031;51.180;17.168;2023-02-04T08:50:00;4.63;;;1.90;;
10399;SDS011;10031;51.180;17.168;2023-02-04T08:52:26;5.40;;;3.30;;
10399;SDS011;10031;51.180;17.168;2023-02-04T08:54:52;2.07;;;1.87;;
10399;SDS011;10031;51.180;17.168;2023-02-04T08:57:18;2.73;;;2.37;;
10399;SDS011;10031;51.180;17.168;2023-02-04T08:59:44;3.20;;;2.60;;
10399;SDS011;10031;51.180;17.168;2023-02-04T09:02:10;6.20;;;2.50;;
10399;SDS011;10031;51.180;17.168;2023-02-04T09:04:37;2.63;;;2.30;;
10399;SDS011;10031;51.180;17.168;2023-02-04T09:07:03;9.67;;;2.77;;
10399;SDS011;10031;51.180;17.168;2023-02-04T09:09:29;6.00;;;3.33;;
10399;SDS011;10031;51.180;17.168;2023-02-04T09:11:55;2.93;;;2.07;;
10399;SDS011;10031;51.180;17.168;2023-02-04T09:14:21;4.07;;;2.70;;
10399;SDS011;10031;51.180;17.168;2023-02-04T09:16:48;3.50;;;1.93;;
10399;SDS011;10031;51.180;17.168;2023-02-04T09:19:14;4.33;;;2.77;;
10399;SDS011;10031;51.180;17.168;2023-02-04T09:21:43;4.30;;;2.40;;
10399;SDS011;10031;51.180;17.168;2023-02-04T09:24:09;2.53;;;2.07;;
10399;SDS011;10031;51.180;17.168;2023-02-04T09:26:35;5.50;;;2.60;;
10399;SDS011;10031;51.180;17.168;2023-02-04T09:29:01;3.40;;;2.27;;
10399;SDS011;10031;51.180;17.168;2023-02-04T09:31:27;2.90;;;2.13;;
10399;SDS011;10031;51.180;17.168;2023-02-04T09:33:53;7.23;;;3.03;;
10399;SDS011;10031;51.180;17.168;2023-02-04T09:36:19;4.77;;;2.97;;
10399;SDS011;10031;51.180;17.168;2023-02-04T09:38:45;7.60;;;4.57;;
10399;SDS011;10031;51.180;17.168;2023-02-04T09:41:12;7.63;;;4.57;;
10399;SDS011;10031;51.180;17.168;2023-02-04T09:43:40;8.30;;;3.97;;
10399;SDS011;10031;51.180;17.168;2023-02-04T09:46:25;7.10;;;3.83;;
10399;SDS011;10031;51.180;17.168;2023-02-04T09:48:56;4.40;;;2.93;;
10399;SDS011;10031;51.180;17.168;2023-02-04T09:51:27;3.17;;;2.30;;
10399;SDS011;10031;51.180;17.168;2023-02-04T09:53:54;6.13;;;3.87;;
10399;SDS011;10031;51.180;17.168;2023-02-04T09:56:24;6.80;;;3.23;;
10399;SDS011;10031;51.180;17.168;2023-02-04T09:58:51;4.10;;;2.30;;
10399;SDS011;10031;51.180;17.168;2023-02-04T10:01:18;4.90;;;2.87;;
10399;SDS011;10031;51.180;17.168;2023-02-04T10:03:44;5.63;;;3.63;;
10399;SDS011;10031;51.180;17.168;2023-02-04T10:06:12;7.20;;;3.77;;
10399;SDS011;10031;51.180;17.168;2023-02-04T10:08:39;7.13;;;3.43;;
10399;SDS011;10031;51.180;17.168;2023-02-04T10:11:05;9.80;;;4.43;;
10399;SDS011;10031;51.180;17.168;2023-02-04T10:13:41;3.47;;;2.57;;
10399;SDS011;10031;51.180;17.168;2023-02-04T10:16:12;3.67;;;2.67;;
10399;SDS011;10031;51.180;17.168;2023-02-04T10:18:39;7.10;;;3.50;;
10399;SDS011;10031;51.180;17.168;2023-02-04T10:24:06;5.60;;;3.80;;
10399;SDS011;10031;51.180;17.168;2023-02-04T10:26:35;4.23;;;2.27;;
10399;SDS011;10031;51.180;17.168;2023-02-04T10:29:03;7.57;;;4.60;;
10399;SDS011;10031;51.180;17.168;2023-02-04T10:31:30;7.73;;;4.87;;
10399;SDS011;10031;51.180;17.168;2023-02-04T10:34:08;5.13;;;3.33;;
10399;SDS011;10031;51.180;17.168;2023-02-04T10:36:36;9.27;;;4.50;;
10399;SDS011;10031;51.180;17.168;2023-02-04T10:39:04;5.60;;;3.40;;
10399;SDS011;10031;51.180;17.168;2023-02-04T10:41:31;4.83;;;2.90;;
10399;SDS011;10031;51.180;17.168;2023-02-04T10:44:10;5.27;;;3.30;;
10399;SDS011;10031;51.180;17.168;2023-02-04T10:46:37;5.03;;;3.33;;
10399;SDS011;10031;51.180;17.168;2023-02-04T10:49:04;3.03;;;2.30;;
10399;SDS011;10031;51.180;17.168;2023-02-04T10:51:31;3.10;;;2.30;;
10399;SDS011;10031;51.180;17.168;2023-02-04T10:53:58;6.63;;;3.17;;
10399;SDS011;10031;51.180;17.168;2023-02-04T10:56:43;5.63;;;3.20;;
10399;SDS011;10031;51.180;17.168;2023-02-04T10:59:12;5.53;;;2.87;;
10399;SDS011;10031;51.180;17.168;2023-02-04T11:01:44;4.73;;;3.17;;
10399;SDS011;10031;51.180;17.168;2023-02-04T11:04:11;3.37;;;2.57;;
10399;SDS011;10031;51.180;17.168;2023-02-04T11:06:37;4.23;;;2.40;;
10399;SDS011;10031;51.180;17.168;2023-02-04T11:09:09;4.70;;;2.93;;
10399;SDS011;10031;51.180;17.168;2023-02-04T11:11:36;5.77;;;3.17;;
10399;SDS011;10031;51.180;17.168;2023-02-04T11:14:16;3.40;;;2.50;;
10399;SDS011;10031;51.180;17.168;2023-02-04T11:16:47;5.57;;;2.63;;
10399;SDS011;10031;51.180;17.168;2023-02-04T11:19:13;4.70;;;2.90;;
10399;SDS011;10031;51.180;17.168;2023-02-04T11:21:44;9.77;;;3.50;;
10399;SDS011;10031;51.180;17.168;2023-02-04T11:26:43;9.60;;;4.07;;
10399;SDS011;10031;51.180;17.168;2023-02-04T11:31:40;3.97;;;2.40;;
10399;SDS011;10031;51.180;17.168;2023-02-04T11:39:26;2.00;;;1.67;;
10399;SDS011;10031;51.180;17.168;2023-02-04T11:41:53;4.17;;;1.97;;
10399;SDS011;10031;51.180;17.168;2023-02-04T11:44:19;1.90;;;1.43;;
10399;SDS011;10031;51.180;17.168;2023-02-04T11:46:53;2.10;;;1.40;;
10399;SDS011;10031;51.180;17.168;2023-02-04T11:49:20;5.63;;;2.57;;
10399;SDS011;10031;51.180;17.168;2023-02-04T11:51:48;3.33;;;1.53;;
10399;SDS011;10031;51.180;17.168;2023-02-04T11:54:14;3.20;;;1.60;;
10399;SDS011;10031;51.180;17.168;2023-02-04T11:56:43;5.13;;;1.50;;
10399;SDS011;10031;51.180;17.168;2023-02-04T11:59:10;2.93;;;1.30;;
10399;SDS011;10031;51.180;17.168;2023-02-04T12:01:37;1.80;;;1.23;;
10399;SDS011;10031;51.180;17.168;2023-02-04T12:04:05;4.20;;;2.33;;
10399;SDS011;10031;51.180;17.168;2023-02-04T12:06:33;1.30;;;1.20;;
10399;SDS011;10031;51.180;17.168;2023-02-04T12:09:32;1.37;;;1.20;;
10399;SDS011;10031;51.180;17.168;2023-02-04T12:11:54;2.97;;;1.20;;
10399;SDS011;10031;51.180;17.168;2023-02-04T12:14:20;2.10;;;1.30;;
10399;SDS011;10031;51.180;17.168;2023-02-04T12:16:50;2.43;;;1.50;;
10399;SDS011;10031;51.180;17.168;2023-02-04T12:19:16;2.40;;;1.47;;
10399;SDS011;10031;51.180;17.168;2023-02-04T12:21:42;3.13;;;1.60;;
10399;SDS011;10031;51.180;17.168;2023-02-04T12:24:08;3.03;;;1.60;;
10399;SDS011;10031;51.180;17.168;2023-02-04T12:26:35;3.70;;;2.17;;
10399;SDS011;10031;51.180;17.168;2023-02-04T12:29:01;3.37;;;1.80;;
10399;SDS011;10031;51.180;17.168;2023-02-04T12:31:30;3.50;;;1.70;;
10399;SDS011;10031;51.180;17.168;2023-02-04T12:33:58;4.57;;;1.67;;
10399;SDS011;10031;51.180;17.168;2023-02-04T12:36:24;4.17;;;1.67;;
10399;SDS011;10031;51.180;17.168;2023-02-04T12:38:52;5.23;;;2.53;;
10399;SDS011;10031;51.180;17.168;2023-02-04T12:41:18;4.37;;;1.97;;
10399;SDS011;10031;51.180;17.168;2023-02-04T12:43:46;1.93;;;1.30;;
10399;SDS011;10031;51.180;17.168;2023-02-04T12:46:15;3.07;;;1.80;;
10399;SDS011;10031;51.180;17.168;2023-02-04T12:48:41;1.63;;;1.53;;
10399;SDS011;10031;51.180;17.168;2023-02-04T12:51:08;4.83;;;2.17;;
10399;SDS011;10031;51.180;17.168;2023-02-04T12:53:34;3.70;;;1.90;;
10399;SDS011;10031;51.180;17.168;2023-02-04T12:56:00;3.13;;;1.80;;
10399;SDS011;10031;51.180;17.168;2023-02-04T12:58:27;3.07;;;1.60;;
10399;SDS011;10031;51.180;17.168;2023-02-04T13:00:53;3.40;;;1.80;;
10399;SDS011;10031;51.180;17.168;2023-02-04T13:03:20;3.80;;;2.13;;
10399;SDS011;10031;51.180;17.168;2023-02-04T13:05:47;7.07;;;2.37;;
10399;SDS011;10031;51.180;17.168;2023-02-04T13:08:13;4.97;;;2.87;;
10399;SDS011;10031;51.180;17.168;2023-02-04T13:10:40;4.00;;;2.50;;
10399;SDS011;10031;51.180;17.168;2023-02-04T13:13:07;5.83;;;2.60;;
10399;SDS011;10031;51.180;17.168;2023-02-04T13:15:36;4.63;;;2.03;;
10399;SDS011;10031;51.180;17.168;2023-02-04T13:18:05;4.83;;;2.10;;
10399;SDS011;10031;51.180;17.168;2023-02-04T13:20:32;2.83;;;1.67;;
10399;SDS011;10031;51.180;17.168;2023-02-04T13:22:58;10.43;;;4.47;;
10399;SDS011;10031;51.180;17.168;2023-02-04T13:25:24;15.87;;;5.87;;
10399;SDS011;10031;51.180;17.168;2023-02-04T13:27:50;10.33;;;3.47;;
10399;SDS011;10031;51.180;17.168;2023-02-04T13:30:17;8.43;;;3.93;;
10399;SDS011;10031;51.180;17.168;2023-02-04T13:32:51;12.57;;;4.70;;
10399;SDS011;10031;51.180;17.168;2023-02-04T13:35:18;10.83;;;5.07;;
10399;SDS011;10031;51.180;17.168;2023-02-04T13:37:44;8.70;;;3.73;;
10399;SDS011;10031;51.180;17.168;2023-02-04T13:40:10;4.70;;;1.90;;
10399;SDS011;10031;51.180;17.168;2023-02-04T13:42:36;5.00;;;1.70;;
10399;SDS011;10031;51.180;17.168;2023-02-04T13:45:06;3.97;;;2.10;;
10399;SDS011;10031;51.180;17.168;2023-02-04T13:47:36;6.63;;;2.70;;
10399;SDS011;10031;51.180;17.168;2023-02-04T13:50:06;6.13;;;2.33;;
10399;SDS011;10031;51.180;17.168;2023-02-04T13:52:32;4.23;;;2.40;;
10399;SDS011;10031;51.180;17.168;2023-02-04T13:55:00;8.47;;;2.83;;
10399;SDS011;10031;51.180;17.168;2023-02-04T13:57:26;5.57;;;2.87;;
10399;SDS011;10031;51.180;17.168;2023-02-04T13:59:54;3.50;;;1.47;;
10399;SDS011;10031;51.180;17.168;2023-02-04T14:02:20;4.20;;;2.43;;
10399;SDS011;10031;51.180;17.168;2023-02-04T14:04:48;5.40;;;3.27;;
10399;SDS011;10031;51.180;17.168;2023-02-04T14:07:15;5.00;;;2.70;;
10399;SDS011;10031;51.180;17.168;2023-02-04T14:09:41;8.70;;;4.57;;
10399;SDS011;10031;51.180;17.168;2023-02-04T14:12:07;6.43;;;3.80;;
10399;SDS011;10031;51.180;17.168;2023-02-04T14:14:34;10.03;;;3.00;;
10399;SDS011;10031;51.180;17.168;2023-02-04T14:17:00;7.87;;;4.83;;
10399;SDS011;10031;51.180;17.168;2023-02-04T14:19:26;10.67;;;5.10;;
10399;SDS011;10031;51.180;17.168;2023-02-04T14:21:52;4.20;;;2.27;;
10399;SDS011;10031;51.180;17.168;2023-02-04T14:24:18;8.63;;;3.80;;
10399;SDS011;10031;51.180;17.168;2023-02-04T14:26:45;4.77;;;2.90;;
10399;SDS011;10031;51.180;17.168;2023-02-04T14:29:12;5.83;;;4.00;;
10399;SDS011;10031;51.180;17.168;2023-02-04T14:31:38;5.63;;;2.97;;
10399;SDS011;10031;51.180;17.168;2023-02-04T14:34:06;6.30;;;3.73;;
10399;SDS011;10031;51.180;17.168;2023-02-04T14:36:32;3.17;;;2.70;;
10399;SDS011;10031;51.180;17.168;2023-02-04T14:39:04;8.77;;;3.40;;
10399;SDS011;10031;51.180;17.168;2023-02-04T14:41:33;7.60;;;4.10;;
10399;SDS011;10031;51.180;17.168;2023-02-04T14:43:59;5.57;;;3.70;;
10399;SDS011;10031;51.180;17.168;2023-02-04T14:46:25;5.57;;;3.97;;